Time;durP1;ratioP1;P1;durP2;ratioP2;P2;SDS_P1;SDS_P2;PMS_P1;PMS_P2;Temp;Humidity;BMP_temperature;BMP_pressure;BME280_temperature;BME280_humidity;BME280_pressure;Samples;Min_cycle;Max_cycle;Signal;HPM_P1;HPM_P2
2021/10/22 00:01:09;;;;;;;17.48;14.93;;;;;;;;;;143725;566;46917;-53
2021/10/22 00:03:36;;;;;;;17.73;15.85;;;;;;;;;;143726;693;46020;-53
2021/10/22 00:06:04;;;;;;;19.15;16.90;;;;;;;;;;143730;582;46020;-53
2021/10/22 00:08:31;;;;;;;18.10;15.27;;;;;;;;;;143727;573;46023;-55
2021/10/22 00:10:58;;;;;;;19.35;17.15;;;;;;;;;;143725;624;46020;-53
2021/10/22 00:13:25;;;;;;;19.02;17.02;;;;;;;;;;143725;585;46020;-53
2021/10/22 00:15:52;;;;;;;20.67;16.20;;;;;;;;;;143729;575;46021;-54
2021/10/22 00:18:20;;;;;;;21.62;16.33;;;;;;;;;;143727;756;46022;-55
2021/10/22 00:20:48;;;;;;;20.58;16.65;;;;;;;;;;143725;594;46021;-54
2021/10/22 00:23:15;;;;;;;17.98;16.08;;;;;;;;;;143725;579;46021;-53
2021/10/22 00:25:42;;;;;;;19.50;17.40;;;;;;;;;;143728;607;46020;-53
2021/10/22 00:28:09;;;;;;;18.35;16.42;;;;;;;;;;143726;621;46022;-53
2021/10/22 00:30:36;;;;;;;20.17;17.15;;;;;;;;;;143724;652;46917;-53
2021/10/22 00:33:03;;;;;;;17.55;15.50;;;;;;;;;;143725;579;46020;-54
2021/10/22 00:35:30;;;;;;;16.33;14.65;;;;;;;;;;143729;570;46020;-53
2021/10/22 00:37:58;;;;;;;17.10;14.93;;;;;;;;;;143728;600;46023;-53
2021/10/22 00:40:25;;;;;;;18.33;15.48;;;;;;;;;;143725;569;46020;-53
2021/10/22 00:42:55;;;;;;;17.37;15.40;;;;;;;;;;143725;570;46020;-53
2021/10/22 00:45:23;;;;;;;16.55;14.85;;;;;;;;;;143728;576;46021;-53
2021/10/22 00:47:50;;;;;;;19.37;15.15;;;;;;;;;;143728;651;46022;-53
2021/10/22 00:50:17;;;;;;;17.30;14.60;;;;;;;;;;143726;562;46021;-53
2021/10/22 00:52:46;;;;;;;17.70;15.80;;;;;;;;;;143727;579;46021;-53
2021/10/22 00:55:14;;;;;;;16.75;14.55;;;;;;;;;;143729;569;46020;-53
2021/10/22 00:57:42;;;;;;;17.77;15.63;;;;;;;;;;143726;642;47022;-53
2021/10/22 01:00:10;;;;;;;20.48;15.05;;;;;;;;;;143728;588;46020;-53
2021/10/22 01:02:42;;;;;;;19.73;17.62;;;;;;;;;;143725;605;46910;-54
2021/10/22 01:05:12;;;;;;;23.75;17.45;;;;;;;;;;143730;609;46020;-54
2021/10/22 01:07:40;;;;;;;18.08;14.57;;;;;;;;;;143727;564;46048;-53
2021/10/22 01:10:08;;;;;;;18.67;15.88;;;;;;;;;;143725;579;46916;-55
2021/10/22 01:12:36;;;;;;;18.87;14.48;;;;;;;;;;143725;577;46020;-55
2021/10/22 01:15:04;;;;;;;18.23;14.73;;;;;;;;;;143729;587;46021;-53
2021/10/22 01:17:41;;;;;;;19.17;15.93;;;;;;;;;;143728;709;46022;-53
2021/10/22 01:20:13;;;;;;;18.70;16.50;;;;;;;;;;143724;573;47011;-54
2021/10/22 01:22:41;;;;;;;18.25;14.75;;;;;;;;;;143725;573;46021;-54
2021/10/22 01:25:12;;;;;;;21.58;15.48;;;;;;;;;;143729;615;46020;-53
2021/10/22 01:27:39;;;;;;;18.25;15.80;;;;;;;;;;143727;744;47021;-54
2021/10/22 01:30:08;;;;;;;17.58;15.05;;;;;;;;;;143726;654;46020;-53
2021/10/22 01:32:36;;;;;;;15.98;14.15;;;;;;;;;;143726;575;46022;-54
2021/10/22 01:35:04;;;;;;;17.70;15.10;;;;;;;;;;143731;683;46018;-54
2021/10/22 01:37:31;;;;;;;19.27;15.65;;;;;;;;;;143729;564;46023;-53
2021/10/22 01:39:59;;;;;;;18.67;15.65;;;;;;;;;;143726;620;46020;-54
2021/10/22 01:42:27;;;;;;;18.62;15.70;;;;;;;;;;143727;584;46020;-53
2021/10/22 01:44:54;;;;;;;18.25;16.35;;;;;;;;;;143731;572;46021;-53
2021/10/22 01:47:22;;;;;;;16.60;14.82;;;;;;;;;;143728;598;46022;-53
2021/10/22 01:49:49;;;;;;;19.95;14.85;;;;;;;;;;143729;567;46021;-54
2021/10/22 01:52:16;;;;;;;16.50;14.55;;;;;;;;;;143727;567;46021;-55
2021/10/22 01:54:43;;;;;;;19.25;13.98;;;;;;;;;;143731;563;46020;-53
2021/10/22 01:57:11;;;;;;;18.70;14.55;;;;;;;;;;143726;593;47022;-53
2021/10/22 01:59:38;;;;;;;15.85;14.00;;;;;;;;;;143729;585;46020;-53
2021/10/22 02:02:06;;;;;;;18.30;13.27;;;;;;;;;;143727;569;46020;-53
2021/10/22 02:04:33;;;;;;;15.02;13.45;;;;;;;;;;143731;582;46020;-53
2021/10/22 02:07:01;;;;;;;18.50;14.15;;;;;;;;;;143729;594;46023;-53
2021/10/22 02:09:28;;;;;;;16.15;13.60;;;;;;;;;;143726;604;46916;-55
2021/10/22 02:11:55;;;;;;;14.77;13.15;;;;;;;;;;143727;570;46022;-54
2021/10/22 02:14:21;;;;;;;15.55;13.85;;;;;;;;;;143732;635;46019;-54
2021/10/22 02:16:49;;;;;;;15.68;13.95;;;;;;;;;;143728;575;46022;-53
2021/10/22 02:19:15;;;;;;;17.62;15.73;;;;;;;;;;143726;586;46916;-53
2021/10/22 02:21:42;;;;;;;15.38;13.10;;;;;;;;;;143728;574;46021;-53
2021/10/22 02:24:09;;;;;;;17.55;14.25;;;;;;;;;;143729;578;46020;-53
2021/10/22 02:26:36;;;;;;;17.83;15.93;;;;;;;;;;143729;614;47022;-53
2021/10/22 02:29:04;;;;;;;17.20;13.70;;;;;;;;;;143727;577;46021;-53
2021/10/22 02:31:31;;;;;;;17.92;13.13;;;;;;;;;;143726;595;46910;-53
2021/10/22 02:33:58;;;;;;;20.08;13.40;;;;;;;;;;143732;620;46020;-53
2021/10/22 02:36:25;;;;;;;16.67;14.05;;;;;;;;;;143731;580;46021;-54
2021/10/22 02:38:52;;;;;;;16.42;13.13;;;;;;;;;;143726;569;46020;-53
2021/10/22 02:41:19;;;;;;;13.65;12.25;;;;;;;;;;143727;570;46020;-53
2021/10/22 02:43:47;;;;;;;17.58;13.25;;;;;;;;;;143732;566;46021;-53
2021/10/22 02:46:15;;;;;;;15.98;13.00;;;;;;;;;;143724;565;47020;-53
2021/10/22 02:48:42;;;;;;;16.15;13.65;;;;;;;;;;143727;572;46020;-53
2021/10/22 02:51:09;;;;;;;14.18;12.60;;;;;;;;;;143726;671;46911;-53
2021/10/22 02:53:36;;;;;;;19.62;13.68;;;;;;;;;;143731;583;46012;-53
2021/10/22 02:56:03;;;;;;;18.70;14.43;;;;;;;;;;143727;569;46022;-54
2021/10/22 02:58:30;;;;;;;17.65;14.63;;;;;;;;;;143728;590;46021;-53
2021/10/22 03:00:57;;;;;;;18.70;13.32;;;;;;;;;;143728;643;46020;-53
2021/10/22 03:03:24;;;;;;;14.90;12.85;;;;;;;;;;143730;742;46020;-53
2021/10/22 03:05:51;;;;;;;14.27;12.20;;;;;;;;;;143729;569;46023;-54
2021/10/22 03:08:19;;;;;;;18.65;13.73;;;;;;;;;;143726;591;46020;-55
2021/10/22 03:10:45;;;;;;;18.52;12.55;;;;;;;;;;143725;608;46910;-53
2021/10/22 03:13:12;;;;;;;14.98;11.98;;;;;;;;;;143732;583;46020;-53
2021/10/22 03:15:39;;;;;;;15.43;13.18;;;;;;;;;;143728;705;47022;-53
2021/10/22 03:18:07;;;;;;;21.77;14.25;;;;;;;;;;143726;609;46020;-54
2021/10/22 03:20:35;;;;;;;15.35;13.05;;;;;;;;;;143728;632;46020;-55
2021/10/22 03:23:03;;;;;;;17.27;13.02;;;;;;;;;;143731;596;46020;-53
2021/10/22 03:25:31;;;;;;;15.05;13.43;;;;;;;;;;143728;602;47022;-54
2021/10/22 03:28:06;;;;;;;17.12;13.15;;;;;;;;;;143726;574;46917;-54
2021/10/22 03:30:35;;;;;;;16.55;12.73;;;;;;;;;;143727;594;46020;-53
2021/10/22 03:33:02;;;;;;;18.30;12.63;;;;;;;;;;143730;649;46010;-54
2021/10/22 03:35:30;;;;;;;22.27;14.57;;;;;;;;;;143728;727;46023;-53
2021/10/22 03:37:57;;;;;;;15.15;13.07;;;;;;;;;;143725;596;46020;-54
2021/10/22 03:40:24;;;;;;;18.25;14.00;;;;;;;;;;143726;586;46020;-53
2021/10/22 03:42:55;;;;;;;18.23;12.55;;;;;;;;;;143728;582;46021;-53
2021/10/22 03:45:22;;;;;;;19.98;13.48;;;;;;;;;;143730;564;46020;-54
2021/10/22 03:47:50;;;;;;;16.87;12.37;;;;;;;;;;143728;672;46020;-54
2021/10/22 03:50:17;;;;;;;17.65;13.13;;;;;;;;;;143725;578;46023;-53
2021/10/22 03:52:44;;;;;;;14.45;12.93;;;;;;;;;;143730;585;46018;-53
2021/10/22 03:55:12;;;;;;;18.77;13.18;;;;;;;;;;143728;574;46022;-53
2021/10/22 03:57:39;;;;;;;19.42;13.15;;;;;;;;;;143731;581;46021;-53
2021/10/22 04:00:07;;;;;;;14.25;12.55;;;;;;;;;;143726;578;46020;-53
2021/10/22 04:02:35;;;;;;;18.17;12.73;;;;;;;;;;143730;646;46020;-53
2021/10/22 04:05:05;;;;;;;20.58;13.02;;;;;;;;;;143728;634;46051;-53
2021/10/22 04:07:32;;;;;;;15.75;13.07;;;;;;;;;;143725;585;46020;-53
2021/10/22 04:09:59;;;;;;;20.85;14.43;;;;;;;;;;143727;582;46020;-53
2021/10/22 04:12:26;;;;;;;22.08;13.82;;;;;;;;;;143731;566;46020;-56
2021/10/22 04:14:53;;;;;;;25.48;14.15;;;;;;;;;;143729;589;46022;-54
2021/10/22 04:17:20;;;;;;;24.45;17.08;;;;;;;;;;143727;563;46020;-53
2021/10/22 04:19:47;;;;;;;24.27;14.73;;;;;;;;;;143728;572;46020;-53
2021/10/22 04:22:14;;;;;;;27.45;15.85;;;;;;;;;;143731;577;46020;-54
2021/10/22 04:24:41;;;;;;;25.23;18.50;;;;;;;;;;143730;606;46022;-53
2021/10/22 04:27:08;;;;;;;27.10;20.17;;;;;;;;;;143725;567;47010;-53
2021/10/22 04:29:35;;;;;;;19.25;15.35;;;;;;;;;;143726;603;46020;-53
2021/10/22 04:32:02;;;;;;;30.55;21.15;;;;;;;;;;143730;581;46020;-53
2021/10/22 04:34:29;;;;;;;25.30;21.42;;;;;;;;;;143730;600;46022;-53
2021/10/22 04:37:01;;;;;;;25.37;20.23;;;;;;;;;;143727;598;46020;-53
2021/10/22 04:42:37;;;;;;;26.17;16.73;;;;;;;;;;143728;594;46023;-53
2021/10/22 04:45:05;;;;;;;16.37;12.02;;;;;;;;;;143725;588;47020;-53
2021/10/22 04:47:33;;;;;;;15.70;13.40;;;;;;;;;;143727;599;46020;-53
2021/10/22 04:50:01;;;;;;;19.27;15.60;;;;;;;;;;143727;611;46021;-53
2021/10/22 04:52:28;;;;;;;27.60;17.08;;;;;;;;;;143731;599;46020;-53
2021/10/22 04:54:56;;;;;;;21.70;15.77;;;;;;;;;;143727;563;46022;-53
2021/10/22 04:57:23;;;;;;;37.72;18.87;;;;;;;;;;143727;576;46021;-53
2021/10/22 04:59:50;;;;;;;28.20;18.92;;;;;;;;;;143726;573;46020;-54
2021/10/22 05:02:17;;;;;;;19.17;14.60;;;;;;;;;;143732;571;46020;-53
2021/10/22 05:04:43;;;;;;;25.50;13.93;;;;;;;;;;143728;620;46022;-53
2021/10/22 05:07:11;;;;;;;19.87;13.25;;;;;;;;;;143726;600;47010;-53
2021/10/22 05:09:38;;;;;;;20.92;16.42;;;;;;;;;;143726;598;46020;-53
2021/10/22 05:12:08;;;;;;;46.45;25.37;;;;;;;;;;143730;600;46020;-53
2021/10/22 05:14:35;;;;;;;43.10;31.23;;;;;;;;;;143728;587;46050;-53
2021/10/22 05:17:03;;;;;;;46.80;34.88;;;;;;;;;;143727;598;46020;-53
2021/10/22 05:19:31;;;;;;;56.17;40.35;;;;;;;;;;143728;584;46020;-55
2021/10/22 05:21:58;;;;;;;56.08;39.33;;;;;;;;;;143731;595;46020;-53
2021/10/22 05:24:25;;;;;;;44.13;29.08;;;;;;;;;;143729;714;46022;-55
2021/10/22 05:26:52;;;;;;;45.97;32.92;;;;;;;;;;143726;579;46021;-53
2021/10/22 05:29:19;;;;;;;35.33;26.52;;;;;;;;;;143726;570;46020;-53
2021/10/22 05:31:46;;;;;;;42.33;27.05;;;;;;;;;;143730;636;46020;-53
2021/10/22 05:34:13;;;;;;;31.92;22.58;;;;;;;;;;143728;596;46022;-53
2021/10/22 05:36:40;;;;;;;41.25;27.25;;;;;;;;;;143729;588;46020;-53
2021/10/22 05:39:07;;;;;;;41.92;29.75;;;;;;;;;;143727;564;46020;-53
2021/10/22 05:41:34;;;;;;;39.28;28.48;;;;;;;;;;143730;570;46020;-53
2021/10/22 05:44:01;;;;;;;40.92;26.50;;;;;;;;;;143727;638;46023;-55
2021/10/22 05:46:28;;;;;;;36.47;24.85;;;;;;;;;;143729;709;46020;-53
2021/10/22 05:48:55;;;;;;;32.65;23.35;;;;;;;;;;143727;606;46020;-53
2021/10/22 05:51:22;;;;;;;28.75;21.25;;;;;;;;;;143731;573;46021;-53
2021/10/22 05:53:49;;;;;;;28.73;20.17;;;;;;;;;;143729;589;46022;-53
2021/10/22 05:56:16;;;;;;;30.52;20.30;;;;;;;;;;143725;588;46021;-53
2021/10/22 05:58:43;;;;;;;28.38;19.92;;;;;;;;;;143729;624;46021;-53
2021/10/22 06:01:10;;;;;;;37.45;32.80;;;;;;;;;;143731;583;46020;-53
2021/10/22 06:03:37;;;;;;;37.03;28.55;;;;;;;;;;143729;582;46022;-53
2021/10/22 06:06:05;;;;;;;43.05;34.67;;;;;;;;;;143725;596;47010;-53
2021/10/22 06:08:32;;;;;;;36.33;24.80;;;;;;;;;;143724;698;46020;-53
2021/10/22 06:10:59;;;;;;;31.37;24.60;;;;;;;;;;143729;565;46021;-53
2021/10/22 06:13:26;;;;;;;30.30;22.90;;;;;;;;;;143727;584;46023;-53
2021/10/22 06:15:53;;;;;;;30.70;22.67;;;;;;;;;;143725;576;46020;-53
2021/10/22 06:18:20;;;;;;;52.67;30.45;;;;;;;;;;143726;582;46020;-55
2021/10/22 06:20:51;;;;;;;80.32;39.45;;;;;;;;;;143728;602;46021;-53
2021/10/22 06:26:02;;;;;;;40.70;23.50;;;;;;;;;;143727;638;46021;-55
2021/10/22 06:28:30;;;;;;;52.03;31.35;;;;;;;;;;143725;575;46021;-53
2021/10/22 06:30:58;;;;;;;41.05;25.77;;;;;;;;;;143727;579;46020;-53
2021/10/22 06:33:25;;;;;;;37.95;25.20;;;;;;;;;;143726;586;46022;-53
2021/10/22 06:35:54;;;;;;;27.30;21.77;;;;;;;;;;143727;592;46020;-53
2021/10/22 06:38:21;;;;;;;34.47;22.67;;;;;;;;;;143726;572;46020;-54
2021/10/22 06:40:53;;;;;;;31.80;22.45;;;;;;;;;;143728;623;46020;-55
2021/10/22 06:43:23;;;;;;;34.47;23.12;;;;;;;;;;143726;618;46023;-53
2021/10/22 06:45:52;;;;;;;26.25;20.88;;;;;;;;;;143726;627;46020;-54
2021/10/22 06:48:19;;;;;;;31.30;22.83;;;;;;;;;;143726;602;46020;-54
2021/10/22 06:50:47;;;;;;;42.05;25.55;;;;;;;;;;143729;614;46021;-53
2021/10/22 06:53:15;;;;;;;37.35;24.92;;;;;;;;;;143728;575;46022;-53
2021/10/22 06:55:42;;;;;;;29.83;23.15;;;;;;;;;;143724;604;46021;-53
2021/10/22 06:58:09;;;;;;;35.53;23.77;;;;;;;;;;143724;703;46021;-54
2021/10/22 07:00:36;;;;;;;30.17;21.23;;;;;;;;;;143728;633;46020;-53
2021/10/22 07:03:04;;;;;;;34.50;22.00;;;;;;;;;;143727;860;46045;-53
2021/10/22 07:08:29;;;;;;;29.48;20.42;;;;;;;;;;143726;852;47020;-53
2021/10/22 07:10:56;;;;;;;29.95;19.37;;;;;;;;;;143729;589;46020;-53
2021/10/22 07:13:23;;;;;;;24.87;19.10;;;;;;;;;;143727;632;46023;-53
2021/10/22 07:15:50;;;;;;;26.12;18.15;;;;;;;;;;143724;577;46020;-54
2021/10/22 07:18:17;;;;;;;26.12;19.58;;;;;;;;;;143726;569;46020;-54
2021/10/22 07:20:45;;;;;;;26.67;19.62;;;;;;;;;;143729;630;46022;-54
2021/10/22 07:23:12;;;;;;;25.83;18.50;;;;;;;;;;143727;626;46022;-53
2021/10/22 07:25:40;;;;;;;36.70;21.83;;;;;;;;;;143724;566;46021;-53
2021/10/22 07:28:13;;;;;;;31.45;18.17;;;;;;;;;;143726;571;46021;-53
2021/10/22 07:30:42;;;;;;;30.20;19.10;;;;;;;;;;143725;598;46020;-53
2021/10/22 07:33:10;;;;;;;25.83;17.17;;;;;;;;;;143728;581;46022;-53
2021/10/22 07:35:39;;;;;;;27.73;18.73;;;;;;;;;;143723;585;46020;-53
2021/10/22 07:38:10;;;;;;;28.62;18.10;;;;;;;;;;143728;610;46020;-53
2021/10/22 07:40:46;;;;;;;30.12;18.33;;;;;;;;;;143729;575;46020;-54
2021/10/22 07:43:19;;;;;;;24.80;15.95;;;;;;;;;;143726;570;46023;-53
2021/10/22 07:45:46;;;;;;;26.20;19.05;;;;;;;;;;143725;594;46020;-54
2021/10/22 07:48:14;;;;;;;26.60;17.67;;;;;;;;;;143725;654;46020;-53
2021/10/22 07:50:42;;;;;;;26.48;17.48;;;;;;;;;;143730;575;46021;-53
2021/10/22 07:53:09;;;;;;;22.77;16.27;;;;;;;;;;143725;572;47020;-54
2021/10/22 07:55:36;;;;;;;25.75;14.50;;;;;;;;;;143726;641;46021;-53
2021/10/22 07:58:04;;;;;;;22.73;15.65;;;;;;;;;;143727;564;46021;-54
2021/10/22 08:00:31;;;;;;;21.27;15.10;;;;;;;;;;143729;591;46020;-52
2021/10/22 08:02:58;;;;;;;20.30;12.80;;;;;;;;;;143726;595;46022;-54
2021/10/22 08:05:25;;;;;;;29.27;15.32;;;;;;;;;;143726;595;46020;-54
2021/10/22 08:07:52;;;;;;;19.33;14.35;;;;;;;;;;143728;565;46020;-53
2021/10/22 08:10:19;;;;;;;18.65;13.80;;;;;;;;;;143729;571;46020;-54
2021/10/22 08:12:46;;;;;;;18.15;12.37;;;;;;;;;;143728;616;46023;-53
2021/10/22 08:15:13;;;;;;;14.55;9.98;;;;;;;;;;143725;577;46020;-54
2021/10/22 08:17:40;;;;;;;21.98;14.57;;;;;;;;;;143725;588;46020;-53
2021/10/22 08:20:10;;;;;;;18.08;11.80;;;;;;;;;;143729;619;46021;-54
2021/10/22 08:22:37;;;;;;;17.20;9.73;;;;;;;;;;143727;717;46022;-54
2021/10/22 08:25:14;;;;;;;14.65;9.23;;;;;;;;;;143726;661;46021;-53
2021/10/22 08:27:47;;;;;;;18.05;7.87;;;;;;;;;;143726;597;46021;-54
2021/10/22 08:30:17;;;;;;;10.18;7.62;;;;;;;;;;143729;566;46020;-54
2021/10/22 08:32:50;;;;;;;11.05;7.25;;;;;;;;;;143730;580;46022;-54
2021/10/22 08:35:19;;;;;;;14.87;6.62;;;;;;;;;;143725;569;46020;-54
2021/10/22 08:37:47;;;;;;;14.63;7.47;;;;;;;;;;143718;564;48020;-54
2021/10/22 08:40:15;;;;;;;9.55;7.15;;;;;;;;;;143729;582;46020;-54
2021/10/22 08:42:45;;;;;;;13.48;7.82;;;;;;;;;;143727;576;46023;-54
2021/10/22 08:45:13;;;;;;;9.60;6.53;;;;;;;;;;143725;566;46020;-54
2021/10/22 08:47:41;;;;;;;15.25;7.95;;;;;;;;;;143725;588;46020;-54
2021/10/22 08:50:10;;;;;;;11.65;6.68;;;;;;;;;;143728;597;46020;-54
2021/10/22 08:52:38;;;;;;;12.73;7.05;;;;;;;;;;143726;572;47020;-54
2021/10/22 08:55:08;;;;;;;13.85;6.65;;;;;;;;;;143727;704;46021;-54
2021/10/22 08:57:38;;;;;;;10.27;7.00;;;;;;;;;;143726;643;46020;-54
2021/10/22 09:00:08;;;;;;;10.68;6.68;;;;;;;;;;143728;603;46020;-54
2021/10/22 09:02:35;;;;;;;13.57;6.50;;;;;;;;;;143726;599;46051;-54
2021/10/22 09:05:23;;;;;;;11.05;7.12;;;;;;;;;;143725;743;46020;-54
2021/10/22 09:08:02;;;;;;;10.15;6.68;;;;;;;;;;143726;575;46020;-54
2021/10/22 09:10:33;;;;;;;12.48;6.35;;;;;;;;;;143729;566;46020;-54
2021/10/22 09:13:03;;;;;;;12.35;6.70;;;;;;;;;;143727;590;46022;-54
2021/10/22 09:15:38;;;;;;;15.82;7.20;;;;;;;;;;143726;638;47010;-55
2021/10/22 09:18:19;;;;;;;11.63;6.22;;;;;;;;;;143725;613;46020;-54
2021/10/22 09:20:53;;;;;;;18.80;11.70;;;;;;;;;;143727;610;46020;-54
2021/10/22 09:23:35;;;;;;;19.80;14.65;;;;;;;;;;143728;585;46022;-55
2021/10/22 09:26:33;;;;;;;16.92;10.75;;;;;;;;;;143724;620;46915;-55
2021/10/22 09:29:17;;;;;;;12.98;8.10;;;;;;;;;;143725;585;46020;-54
2021/10/22 09:31:49;;;;;;;18.58;12.90;;;;;;;;;;143728;582;46020;-54
2021/10/22 09:34:50;;;;;;;10.85;6.90;;;;;;;;;;143728;653;46023;-54
2021/10/22 09:37:17;;;;;;;19.37;10.48;;;;;;;;;;143724;607;46020;-54
2021/10/22 09:39:44;;;;;;;16.62;9.80;;;;;;;;;;143723;593;46020;-54
2021/10/22 09:42:20;;;;;;;10.98;6.57;;;;;;;;;;143729;646;46020;-55
2021/10/22 09:44:48;;;;;;;14.23;6.25;;;;;;;;;;143727;563;46022;-54
2021/10/22 09:47:20;;;;;;;13.48;9.18;;;;;;;;;;143724;576;46021;-54
2021/10/22 09:50:06;;;;;;;10.38;5.05;;;;;;;;;;143725;597;46020;-54
2021/10/22 09:52:33;;;;;;;9.65;5.93;;;;;;;;;;143728;621;46020;-54
2021/10/22 09:55:10;;;;;;;13.07;9.30;;;;;;;;;;143726;678;47020;-55
2021/10/22 09:58:03;;;;;;;13.35;6.55;;;;;;;;;;143724;569;46020;-55
2021/10/22 10:00:36;;;;;;;11.68;8.23;;;;;;;;;;143725;626;46020;-54
2021/10/22 10:03:04;;;;;;;13.52;8.43;;;;;;;;;;143728;582;46021;-54
2021/10/22 10:05:31;;;;;;;13.95;8.57;;;;;;;;;;143727;616;46022;-54
2021/10/22 10:08:00;;;;;;;12.55;7.35;;;;;;;;;;143727;637;46020;-56
2021/10/22 10:10:28;;;;;;;11.07;5.82;;;;;;;;;;143728;592;46021;-55
2021/10/22 10:12:56;;;;;;;13.02;7.80;;;;;;;;;;143729;656;46020;-55
2021/10/22 10:15:22;;;;;;;11.02;6.35;;;;;;;;;;143724;673;47021;-54
2021/10/22 10:17:51;;;;;;;9.50;5.65;;;;;;;;;;143725;593;46021;-54
2021/10/22 10:20:26;;;;;;;9.35;4.72;;;;;;;;;;143726;675;46020;-56
2021/10/22 10:22:54;;;;;;;10.45;7.25;;;;;;;;;;143729;609;46020;-55
2021/10/22 10:25:22;;;;;;;8.68;4.65;;;;;;;;;;143727;569;46038;-55
2021/10/22 10:27:55;;;;;;;10.70;6.25;;;;;;;;;;143725;657;46020;-55
2021/10/22 10:30:35;;;;;;;9.15;5.72;;;;;;;;;;143724;649;46020;-54
2021/10/22 10:33:06;;;;;;;8.77;5.43;;;;;;;;;;143727;592;46021;-55
2021/10/22 10:35:37;;;;;;;6.78;5.00;;;;;;;;;;143725;644;47022;-54
2021/10/22 10:38:08;;;;;;;8.77;5.28;;;;;;;;;;143728;637;46012;-55
2021/10/22 10:40:36;;;;;;;9.02;4.78;;;;;;;;;;143725;807;46021;-54
2021/10/22 10:43:27;;;;;;;12.70;5.50;;;;;;;;;;143729;567;46020;-54
2021/10/22 10:45:54;;;;;;;6.78;4.60;;;;;;;;;;143728;612;46024;-55
2021/10/22 10:48:22;;;;;;;9.15;6.87;;;;;;;;;;143724;556;47010;-54
2021/10/22 10:51:07;;;;;;;6.57;4.90;;;;;;;;;;143726;569;46020;-56
2021/10/22 10:53:38;;;;;;;19.37;13.68;;;;;;;;;;143729;690;46020;-55
2021/10/22 10:56:22;;;;;;;8.60;5.72;;;;;;;;;;143727;566;46023;-55
2021/10/22 10:58:48;;;;;;;;;;;;;;;;;;143730;980;46020;-54
2021/10/22 11:01:27;;;;;;;13.48;9.07;;;;;;;;;;143732;667;46020;-55
2021/10/22 11:03:55;;;;;;;11.00;6.00;;;;;;;;;;143728;692;46020;-55
2021/10/22 11:06:44;;;;;;;13.23;9.23;;;;;;;;;;143727;631;46048;-55
2021/10/22 11:09:35;;;;;;;20.90;13.77;;;;;;;;;;143726;564;46021;-54
2021/10/22 11:12:04;;;;;;;22.65;18.20;;;;;;;;;;143727;625;46012;-55
2021/10/22 11:14:43;;;;;;;20.27;16.60;;;;;;;;;;143729;669;46020;-55
2021/10/22 11:17:13;;;;;;;11.98;9.52;;;;;;;;;;143727;634;46022;-54
2021/10/22 11:19:41;;;;;;;23.52;13.20;;;;;;;;;;143725;572;46020;-54
2021/10/22 11:22:11;;;;;;;17.42;11.50;;;;;;;;;;143726;650;46020;-54
2021/10/22 11:24:39;;;;;;;15.75;10.93;;;;;;;;;;143728;621;46021;-54
2021/10/22 11:27:18;;;;;;;16.83;10.60;;;;;;;;;;143726;657;46022;-55
2021/10/22 11:29:50;;;;;;;20.73;9.82;;;;;;;;;;143726;623;46029;-55
2021/10/22 11:32:35;;;;;;;12.18;8.32;;;;;;;;;;143727;569;46021;-54
2021/10/22 11:35:04;;;;;;;14.30;9.70;;;;;;;;;;143729;658;46020;-54
2021/10/22 11:37:37;;;;;;;11.35;8.95;;;;;;;;;;143726;613;46022;-54
2021/10/22 11:40:06;;;;;;;10.20;7.68;;;;;;;;;;143727;590;46020;-56
2021/10/22 11:42:35;;;;;;;11.30;6.97;;;;;;;;;;143728;602;46020;-54
2021/10/22 11:45:12;;;;;;;11.45;6.97;;;;;;;;;;143729;576;46020;-54
2021/10/22 11:47:50;;;;;;;13.07;7.78;;;;;;;;;;143727;576;46023;-55
2021/10/22 11:50:32;;;;;;;10.70;7.20;;;;;;;;;;143727;606;46020;-55
2021/10/22 11:53:05;;;;;;;9.95;6.45;;;;;;;;;;143725;589;46020;-55
2021/10/22 11:55:32;;;;;;;9.95;6.70;;;;;;;;;;143730;579;46021;-53
2021/10/22 11:58:10;;;;;;;8.68;6.80;;;;;;;;;;143728;563;46022;-55
2021/10/22 12:00:47;;;;;;;12.37;7.03;;;;;;;;;;143725;668;46021;-54
2021/10/22 12:03:14;;;;;;;10.52;7.05;;;;;;;;;;143726;590;46021;-55
2021/10/22 12:05:42;;;;;;;9.55;7.35;;;;;;;;;;143728;666;46020;-55
2021/10/22 12:08:19;;;;;;;9.60;6.95;;;;;;;;;;143726;589;46022;-54
2021/10/22 12:10:54;;;;;;;11.93;6.60;;;;;;;;;;143727;645;46020;-54
2021/10/22 12:13:34;;;;;;;12.65;6.70;;;;;;;;;;143724;571;46022;-55
2021/10/22 12:16:14;;;;;;;13.07;7.45;;;;;;;;;;143729;592;46018;-55
2021/10/22 12:19:01;;;;;;;12.60;8.10;;;;;;;;;;143728;566;46022;-54
2021/10/22 12:21:34;;;;;;;43.85;30.25;;;;;;;;;;143726;618;46020;-55
2021/10/22 12:24:03;;;;;;;36.17;24.98;;;;;;;;;;143728;608;46021;-54
2021/10/22 12:26:32;;;;;;;49.40;37.08;;;;;;;;;;143731;585;46020;-55
2021/10/22 12:29:19;;;;;;;36.22;26.02;;;;;;;;;;143727;570;46022;-55
2021/10/22 12:31:54;;;;;;;30.00;22.95;;;;;;;;;;143725;569;46021;-53
2021/10/22 12:34:33;;;;;;;30.95;21.20;;;;;;;;;;143726;668;46020;-55
2021/10/22 12:37:13;;;;;;;27.30;17.52;;;;;;;;;;143730;626;46020;-54
2021/10/22 12:39:48;;;;;;;16.98;11.95;;;;;;;;;;143728;656;46023;-54
2021/10/22 12:42:41;;;;;;;17.87;11.98;;;;;;;;;;143725;647;47010;-55
2021/10/22 12:45:22;;;;;;;21.08;15.20;;;;;;;;;;143725;612;46022;-55
2021/10/22 12:47:50;;;;;;;13.23;9.80;;;;;;;;;;143730;651;46021;-55
2021/10/22 12:50:25;;;;;;;23.12;11.40;;;;;;;;;;143728;671;46022;-53
2021/10/22 12:53:00;;;;;;;14.02;9.88;;;;;;;;;;143725;589;46021;-54
2021/10/22 12:55:28;;;;;;;12.35;9.93;;;;;;;;;;143726;657;46020;-54
2021/10/22 12:58:14;;;;;;;18.40;10.85;;;;;;;;;;143729;569;46020;-54
2021/10/22 13:00:41;;;;;;;16.40;8.88;;;;;;;;;;143726;576;47021;-54
2021/10/22 13:03:08;;;;;;;10.93;7.45;;;;;;;;;;143724;573;46020;-54
2021/10/22 13:05:39;;;;;;;13.48;9.05;;;;;;;;;;143725;609;46020;-54
2021/10/22 13:08:25;;;;;;;9.60;7.12;;;;;;;;;;143731;588;46020;-54
2021/10/22 13:10:59;;;;;;;11.12;7.68;;;;;;;;;;143726;595;47020;-54
2021/10/22 13:13:49;;;;;;;10.93;7.35;;;;;;;;;;143720;636;48010;-54
2021/10/22 13:21:46;;;;;;;9.45;7.12;;;;;;;;;;143731;570;47020;-54
2021/10/22 13:24:14;;;;;;;8.02;6.50;;;;;;;;;;143725;594;46021;-53
2021/10/22 13:26:41;;;;;;;10.43;6.93;;;;;;;;;;143724;638;46020;-53
2021/10/22 13:29:16;;;;;;;9.55;6.45;;;;;;;;;;143730;604;46020;-53
2021/10/22 13:31:48;;;;;;;;;;;;;;;;;;143732;977;46023;-53
2021/10/22 13:34:15;;;;;;;9.82;7.18;;;;;;;;;;143733;666;46020;-54
2021/10/22 13:36:43;;;;;;;10.60;6.78;;;;;;;;;;143724;579;46020;-53
2021/10/22 13:39:11;;;;;;;9.73;6.62;;;;;;;;;;143729;671;46021;-54
2021/10/22 13:41:38;;;;;;;11.15;6.28;;;;;;;;;;143728;637;46022;-54
2021/10/22 13:44:06;;;;;;;9.07;6.57;;;;;;;;;;143725;582;46020;-55
2021/10/22 13:46:35;;;;;;;13.18;6.62;;;;;;;;;;143728;564;46021;-54
2021/10/22 13:49:02;;;;;;;13.15;6.43;;;;;;;;;;143729;566;46020;-53
2021/10/22 13:51:29;;;;;;;7.20;6.35;;;;;;;;;;143727;653;46022;-55
2021/10/22 13:53:56;;;;;;;10.98;6.43;;;;;;;;;;143725;565;46021;-54
2021/10/22 13:56:24;;;;;;;8.45;5.37;;;;;;;;;;143728;570;46020;-54
2021/10/22 13:58:51;;;;;;;7.75;5.45;;;;;;;;;;143728;570;46020;-54
2021/10/22 14:01:17;;;;;;;7.72;5.62;;;;;;;;;;143725;570;46916;-54
2021/10/22 14:03:44;;;;;;;12.18;8.07;;;;;;;;;;143725;589;46020;-55
2021/10/22 14:06:12;;;;;;;7.65;5.53;;;;;;;;;;143726;620;46020;-55
2021/10/22 14:08:39;;;;;;;8.63;6.12;;;;;;;;;;143732;579;46021;-54
2021/10/22 14:11:15;;;;;;;9.57;6.43;;;;;;;;;;143729;654;46022;-54
2021/10/22 14:13:57;;;;;;;8.85;6.25;;;;;;;;;;143725;582;46020;-54
2021/10/22 14:16:34;;;;;;;8.20;5.55;;;;;;;;;;143728;577;46021;-54
2021/10/22 14:25:03;;;;;;;9.38;6.10;;;;;;;;;;143730;628;46012;-54
2021/10/22 14:30:15;;;;;;;9.10;5.60;;;;;;;;;;143729;571;46020;-54
2021/10/22 14:32:42;;;;;;;9.63;5.95;;;;;;;;;;143728;592;46023;-54
2021/10/22 14:35:09;;;;;;;10.48;5.87;;;;;;;;;;143727;584;46020;-54
2021/10/22 14:37:37;;;;;;;9.43;6.65;;;;;;;;;;143723;574;46021;-54
2021/10/22 14:40:11;;;;;;;9.07;5.72;;;;;;;;;;143729;573;46020;-54
2021/10/22 14:42:40;;;;;;;8.55;6.75;;;;;;;;;;143729;611;46022;-54
2021/10/22 14:45:19;;;;;;;9.20;6.25;;;;;;;;;;143726;576;47010;-54
2021/10/22 14:47:49;;;;;;;9.18;6.30;;;;;;;;;;143725;596;46910;-54
2021/10/22 14:50:18;;;;;;;7.70;6.30;;;;;;;;;;143731;620;46020;-54
2021/10/22 14:55:37;;;;;;;9.52;6.15;;;;;;;;;;143727;620;46010;-54
2021/10/22 14:58:05;;;;;;;8.68;6.05;;;;;;;;;;143723;563;46020;-54
2021/10/22 15:00:32;;;;;;;7.72;6.40;;;;;;;;;;143730;607;46021;-55
2021/10/22 15:03:06;;;;;;;9.10;6.40;;;;;;;;;;143729;577;46023;-54
2021/10/22 15:05:37;;;;;;;7.97;5.55;;;;;;;;;;143726;569;46918;-54